sensor_id;sensor_type;location;lat;lon;timestamp;P1;durP1;ratioP1;P2;durP2;ratioP2
43098;SDS011;28715;51.988;6.020;2022-09-01T00:02:03;3.72;;;1.33;;
43098;SDS011;28715;51.988;6.020;2022-09-01T00:04:32;5.07;;;1.40;;
43098;SDS011;28715;51.988;6.020;2022-09-01T00:07:02;4.78;;;1.40;;
43098;SDS011;28715;51.988;6.020;2022-09-01T00:09:32;2.33;;;1.25;;
43098;SDS011;28715;51.988;6.020;2022-09-01T00:11:58;2.75;;;1.35;;
43098;SDS011;28715;51.988;6.020;2022-09-01T00:14:26;3.60;;;1.40;;
43098;SDS011;28715;51.988;6.020;2022-09-01T00:16:54;4.00;;;1.30;;
43098;SDS011;28715;51.988;6.020;2022-09-01T00:19:20;4.87;;;1.57;;
43098;SDS011;28715;51.988;6.020;2022-09-01T00:21:47;2.83;;;1.20;;
43098;SDS011;28715;51.988;6.020;2022-09-01T00:24:13;6.57;;;1.40;;
43098;SDS011;28715;51.988;6.020;2022-09-01T00:26:40;3.50;;;1.40;;
43098;SDS011;28715;51.988;6.020;2022-09-01T00:29:06;5.43;;;1.83;;
43098;SDS011;28715;51.988;6.020;2022-09-01T00:31:32;3.80;;;1.55;;
43098;SDS011;28715;51.988;6.020;2022-09-01T00:33:58;2.72;;;1.20;;
43098;SDS011;28715;51.988;6.020;2022-09-01T00:36:24;4.47;;;1.50;;
43098;SDS011;28715;51.988;6.020;2022-09-01T00:38:50;6.13;;;1.60;;
43098;SDS011;28715;51.988;6.020;2022-09-01T00:41:18;3.35;;;1.55;;
43098;SDS011;28715;51.988;6.020;2022-09-01T00:46:24;3.55;;;1.58;;
43098;SDS011;28715;51.988;6.020;2022-09-01T00:48:55;2.97;;;1.40;;
43098;SDS011;28715;51.988;6.020;2022-09-01T00:51:27;7.13;;;1.85;;
43098;SDS011;28715;51.988;6.020;2022-09-01T00:53:56;3.00;;;1.33;;
43098;SDS011;28715;51.988;6.020;2022-09-01T00:56:23;3.15;;;1.50;;
43098;SDS011;28715;51.988;6.020;2022-09-01T00:58:49;3.83;;;1.65;;
43098;SDS011;28715;51.988;6.020;2022-09-01T01:01:16;3.88;;;1.70;;
43098;SDS011;28715;51.988;6.020;2022-09-01T01:03:42;4.10;;;1.70;;
43098;SDS011;28715;51.988;6.020;2022-09-01T01:06:10;7.68;;;1.60;;
43098;SDS011;28715;51.988;6.020;2022-09-01T01:08:41;5.97;;;1.80;;
43098;SDS011;28715;51.988;6.020;2022-09-01T01:11:13;3.95;;;1.80;;
43098;SDS011;28715;51.988;6.020;2022-09-01T01:16:19;3.28;;;1.50;;
43098;SDS011;28715;51.988;6.020;2022-09-01T01:18:45;4.15;;;1.45;;
43098;SDS011;28715;51.988;6.020;2022-09-01T01:21:17;6.50;;;2.00;;
43098;SDS011;28715;51.988;6.020;2022-09-01T01:24:19;4.05;;;1.92;;
43098;SDS011;28715;51.988;6.020;2022-09-01T01:26:46;5.63;;;1.85;;
43098;SDS011;28715;51.988;6.020;2022-09-01T01:29:12;3.70;;;1.90;;
43098;SDS011;28715;51.988;6.020;2022-09-01T01:31:37;3.30;;;1.70;;
43098;SDS011;28715;51.988;6.020;2022-09-01T01:34:03;3.90;;;1.90;;
43098;SDS011;28715;51.988;6.020;2022-09-01T01:36:33;4.97;;;2.00;;
43098;SDS011;28715;51.988;6.020;2022-09-01T01:41:30;3.67;;;1.77;;
43098;SDS011;28715;51.988;6.020;2022-09-01T01:43:58;2.17;;;1.30;;
43098;SDS011;28715;51.988;6.020;2022-09-01T01:46:28;5.68;;;1.60;;
43098;SDS011;28715;51.988;6.020;2022-09-01T01:48:55;4.70;;;1.80;;
43098;SDS011;28715;51.988;6.020;2022-09-01T01:51:21;2.80;;;1.60;;
43098;SDS011;28715;51.988;6.020;2022-09-01T01:53:52;5.50;;;2.03;;
43098;SDS011;28715;51.988;6.020;2022-09-01T01:56:19;3.25;;;1.58;;
43098;SDS011;28715;51.988;6.020;2022-09-01T01:58:53;3.95;;;1.75;;
43098;SDS011;28715;51.988;6.020;2022-09-01T02:01:22;4.90;;;1.50;;
43098;SDS011;28715;51.988;6.020;2022-09-01T02:03:49;3.47;;;1.70;;
43098;SDS011;28715;51.988;6.020;2022-09-01T02:06:16;5.45;;;1.60;;
43098;SDS011;28715;51.988;6.020;2022-09-01T02:08:48;3.05;;;1.67;;
43098;SDS011;28715;51.988;6.020;2022-09-01T02:11:14;4.75;;;1.80;;
43098;SDS011;28715;51.988;6.020;2022-09-01T02:13:41;2.97;;;1.42;;
43098;SDS011;28715;51.988;6.020;2022-09-01T02:16:07;4.40;;;1.97;;
43098;SDS011;28715;51.988;6.020;2022-09-01T02:18:39;4.88;;;1.55;;
43098;SDS011;28715;51.988;6.020;2022-09-01T02:21:07;3.97;;;1.70;;
43098;SDS011;28715;51.988;6.020;2022-09-01T02:23:35;4.82;;;1.90;;
43098;SDS011;28715;51.988;6.020;2022-09-01T02:26:02;4.13;;;1.88;;
43098;SDS011;28715;51.988;6.020;2022-09-01T02:28:30;3.55;;;1.85;;
43098;SDS011;28715;51.988;6.020;2022-09-01T02:30:58;4.93;;;1.60;;
43098;SDS011;28715;51.988;6.020;2022-09-01T02:33:26;4.68;;;1.90;;
43098;SDS011;28715;51.988;6.020;2022-09-01T02:35:59;3.90;;;1.70;;
43098;SDS011;28715;51.988;6.020;2022-09-01T02:38:27;4.65;;;1.90;;
43098;SDS011;28715;51.988;6.020;2022-09-01T02:40:54;2.92;;;1.67;;
43098;SDS011;28715;51.988;6.020;2022-09-01T02:43:22;3.05;;;1.50;;
43098;SDS011;28715;51.988;6.020;2022-09-01T02:45:50;3.80;;;1.80;;
43098;SDS011;28715;51.988;6.020;2022-09-01T02:48:18;5.30;;;1.77;;
43098;SDS011;28715;51.988;6.020;2022-09-01T02:50:47;2.75;;;1.48;;
43098;SDS011;28715;51.988;6.020;2022-09-01T02:53:14;4.70;;;1.70;;
43098;SDS011;28715;51.988;6.020;2022-09-01T02:55:40;4.47;;;1.90;;
43098;SDS011;28715;51.988;6.020;2022-09-01T02:58:07;2.10;;;1.40;;
43098;SDS011;28715;51.988;6.020;2022-09-01T03:00:40;6.35;;;2.00;;
43098;SDS011;28715;51.988;6.020;2022-09-01T03:03:07;2.88;;;1.70;;
43098;SDS011;28715;51.988;6.020;2022-09-01T03:05:33;3.58;;;1.90;;
43098;SDS011;28715;51.988;6.020;2022-09-01T03:10:35;3.53;;;1.80;;
43098;SDS011;28715;51.988;6.020;2022-09-01T03:13:16;4.78;;;1.83;;
43098;SDS011;28715;51.988;6.020;2022-09-01T03:15:44;4.53;;;1.58;;
43098;SDS011;28715;51.988;6.020;2022-09-01T03:18:11;3.58;;;1.83;;
43098;SDS011;28715;51.988;6.020;2022-09-01T03:20:38;4.90;;;1.80;;
43098;SDS011;28715;51.988;6.020;2022-09-01T03:23:09;4.18;;;1.90;;
43098;SDS011;28715;51.988;6.020;2022-09-01T03:25:38;3.15;;;1.85;;
43098;SDS011;28715;51.988;6.020;2022-09-01T03:28:08;3.75;;;1.85;;
43098;SDS011;28715;51.988;6.020;2022-09-01T03:30:36;4.68;;;1.80;;
43098;SDS011;28715;51.988;6.020;2022-09-01T03:33:05;4.70;;;1.90;;
43098;SDS011;28715;51.988;6.020;2022-09-01T03:35:31;4.55;;;1.85;;
43098;SDS011;28715;51.988;6.020;2022-09-01T03:37:58;5.18;;;1.90;;
43098;SDS011;28715;51.988;6.020;2022-09-01T03:40:26;2.33;;;1.55;;
43098;SDS011;28715;51.988;6.020;2022-09-01T03:42:56;4.32;;;2.03;;
43098;SDS011;28715;51.988;6.020;2022-09-01T03:45:22;5.55;;;2.05;;
43098;SDS011;28715;51.988;6.020;2022-09-01T03:47:50;3.50;;;1.85;;
43098;SDS011;28715;51.988;6.020;2022-09-01T03:50:19;4.97;;;2.20;;
43098;SDS011;28715;51.988;6.020;2022-09-01T03:52:47;3.85;;;1.80;;
43098;SDS011;28715;51.988;6.020;2022-09-01T03:55:18;2.83;;;1.77;;
43098;SDS011;28715;51.988;6.020;2022-09-01T03:57:52;3.45;;;1.88;;
43098;SDS011;28715;51.988;6.020;2022-09-01T04:00:20;3.63;;;1.77;;
43098;SDS011;28715;51.988;6.020;2022-09-01T04:02:48;4.68;;;2.03;;
43098;SDS011;28715;51.988;6.020;2022-09-01T04:05:18;4.10;;;2.03;;
43098;SDS011;28715;51.988;6.020;2022-09-01T04:07:48;4.82;;;2.30;;
43098;SDS011;28715;51.988;6.020;2022-09-01T04:10:15;4.35;;;2.05;;
43098;SDS011;28715;51.988;6.020;2022-09-01T04:12:42;4.47;;;2.00;;
43098;SDS011;28715;51.988;6.020;2022-09-01T04:15:09;3.85;;;2.20;;
43098;SDS011;28715;51.988;6.020;2022-09-01T04:17:36;4.07;;;1.90;;
43098;SDS011;28715;51.988;6.020;2022-09-01T04:20:20;4.85;;;2.05;;
43098;SDS011;28715;51.988;6.020;2022-09-01T04:22:47;4.03;;;1.80;;
43098;SDS011;28715;51.988;6.020;2022-09-01T04:25:14;6.10;;;2.05;;
43098;SDS011;28715;51.988;6.020;2022-09-01T04:27:52;4.28;;;2.10;;
43098;SDS011;28715;51.988;6.020;2022-09-01T04:30:21;5.38;;;2.33;;
43098;SDS011;28715;51.988;6.020;2022-09-01T04:32:50;4.07;;;2.05;;
43098;SDS011;28715;51.988;6.020;2022-09-01T04:35:20;6.15;;;2.13;;
43098;SDS011;28715;51.988;6.020;2022-09-01T04:37:54;6.50;;;2.00;;
43098;SDS011;28715;51.988;6.020;2022-09-01T04:40:19;4.40;;;2.30;;
43098;SDS011;28715;51.988;6.020;2022-09-01T04:42:47;3.92;;;1.95;;
43098;SDS011;28715;51.988;6.020;2022-09-01T04:45:13;4.23;;;2.07;;
43098;SDS011;28715;51.988;6.020;2022-09-01T04:47:39;3.85;;;1.92;;
43098;SDS011;28715;51.988;6.020;2022-09-01T04:50:06;3.33;;;1.88;;
43098;SDS011;28715;51.988;6.020;2022-09-01T04:52:41;3.38;;;2.03;;
43098;SDS011;28715;51.988;6.020;2022-09-01T04:55:09;3.10;;;1.63;;
43098;SDS011;28715;51.988;6.020;2022-09-01T04:57:41;4.95;;;2.33;;
43098;SDS011;28715;51.988;6.020;2022-09-01T05:00:11;4.15;;;1.90;;
43098;SDS011;28715;51.988;6.020;2022-09-01T05:02:48;3.67;;;2.00;;
43098;SDS011;28715;51.988;6.020;2022-09-01T05:05:28;3.63;;;1.80;;
43098;SDS011;28715;51.988;6.020;2022-09-01T05:08:03;3.85;;;1.80;;
43098;SDS011;28715;51.988;6.020;2022-09-01T05:10:37;4.88;;;1.70;;
43098;SDS011;28715;51.988;6.020;2022-09-01T05:13:05;3.60;;;2.05;;
43098;SDS011;28715;51.988;6.020;2022-09-01T05:15:34;3.85;;;1.90;;
43098;SDS011;28715;51.988;6.020;2022-09-01T05:18:04;3.33;;;1.90;;
43098;SDS011;28715;51.988;6.020;2022-09-01T05:20:35;4.88;;;2.00;;
43098;SDS011;28715;51.988;6.020;2022-09-01T05:23:03;4.53;;;2.17;;
43098;SDS011;28715;51.988;6.020;2022-09-01T05:25:29;4.20;;;1.83;;
43098;SDS011;28715;51.988;6.020;2022-09-01T05:27:55;4.57;;;1.97;;
43098;SDS011;28715;51.988;6.020;2022-09-01T05:30:21;3.75;;;1.95;;
43098;SDS011;28715;51.988;6.020;2022-09-01T05:32:47;4.18;;;1.73;;
43098;SDS011;28715;51.988;6.020;2022-09-01T05:35:14;4.28;;;1.95;;
43098;SDS011;28715;51.988;6.020;2022-09-01T05:37:40;6.13;;;2.00;;
43098;SDS011;28715;51.988;6.020;2022-09-01T05:40:07;5.43;;;2.28;;
43098;SDS011;28715;51.988;6.020;2022-09-01T05:42:39;5.15;;;2.10;;
43098;SDS011;28715;51.988;6.020;2022-09-01T05:45:06;4.47;;;1.88;;
43098;SDS011;28715;51.988;6.020;2022-09-01T05:47:34;3.83;;;2.20;;
43098;SDS011;28715;51.988;6.020;2022-09-01T05:50:00;5.20;;;1.90;;
43098;SDS011;28715;51.988;6.020;2022-09-01T05:52:27;4.03;;;1.83;;
43098;SDS011;28715;51.988;6.020;2022-09-01T05:54:57;4.68;;;1.67;;
43098;SDS011;28715;51.988;6.020;2022-09-01T05:57:24;3.90;;;1.88;;
43098;SDS011;28715;51.988;6.020;2022-09-01T05:59:50;3.97;;;2.10;;
43098;SDS011;28715;51.988;6.020;2022-09-01T06:02:18;5.07;;;2.30;;
43098;SDS011;28715;51.988;6.020;2022-09-01T06:04:47;4.20;;;2.03;;
43098;SDS011;28715;51.988;6.020;2022-09-01T06:07:16;4.15;;;1.90;;
43098;SDS011;28715;51.988;6.020;2022-09-01T06:09:44;3.88;;;2.10;;
43098;SDS011;28715;51.988;6.020;2022-09-01T06:12:12;4.65;;;2.03;;
43098;SDS011;28715;51.988;6.020;2022-09-01T06:14:42;3.58;;;1.77;;
43098;SDS011;28715;51.988;6.020;2022-09-01T06:17:08;4.10;;;2.08;;
43098;SDS011;28715;51.988;6.020;2022-09-01T06:19:36;4.80;;;2.20;;
43098;SDS011;28715;51.988;6.020;2022-09-01T06:22:02;3.90;;;1.92;;
43098;SDS011;28715;51.988;6.020;2022-09-01T06:24:28;3.65;;;1.65;;
43098;SDS011;28715;51.988;6.020;2022-09-01T06:26:54;4.20;;;1.70;;
43098;SDS011;28715;51.988;6.020;2022-09-01T06:29:19;6.57;;;2.00;;
43098;SDS011;28715;51.988;6.020;2022-09-01T06:31:45;4.33;;;1.73;;
43098;SDS011;28715;51.988;6.020;2022-09-01T06:34:15;3.95;;;1.67;;
43098;SDS011;28715;51.988;6.020;2022-09-01T06:36:42;3.95;;;1.70;;
43098;SDS011;28715;51.988;6.020;2022-09-01T06:39:09;3.72;;;1.95;;
43098;SDS011;28715;51.988;6.020;2022-09-01T06:41:43;4.85;;;1.85;;
43098;SDS011;28715;51.988;6.020;2022-09-01T06:44:13;5.78;;;1.83;;
43098;SDS011;28715;51.988;6.020;2022-09-01T06:46:39;4.28;;;2.08;;
43098;SDS011;28715;51.988;6.020;2022-09-01T06:49:05;5.83;;;1.83;;
43098;SDS011;28715;51.988;6.020;2022-09-01T06:51:35;4.00;;;2.00;;
43098;SDS011;28715;51.988;6.020;2022-09-01T06:54:01;4.83;;;1.60;;
43098;SDS011;28715;51.988;6.020;2022-09-01T06:56:27;4.60;;;2.10;;
43098;SDS011;28715;51.988;6.020;2022-09-01T06:58:55;7.55;;;2.38;;
43098;SDS011;28715;51.988;6.020;2022-09-01T07:01:22;4.63;;;1.83;;
43098;SDS011;28715;51.988;6.020;2022-09-01T07:03:51;5.18;;;1.70;;
43098;SDS011;28715;51.988;6.020;2022-09-01T07:06:18;4.47;;;1.75;;
43098;SDS011;28715;51.988;6.020;2022-09-01T07:08:49;7.53;;;1.80;;
43098;SDS011;28715;51.988;6.020;2022-09-01T07:11:16;5.50;;;1.75;;
43098;SDS011;28715;51.988;6.020;2022-09-01T07:13:49;4.78;;;1.55;;
43098;SDS011;28715;51.988;6.020;2022-09-01T07:16:20;5.80;;;2.00;;
43098;SDS011;28715;51.988;6.020;2022-09-01T07:18:50;6.03;;;1.58;;
43098;SDS011;28715;51.988;6.020;2022-09-01T07:21:20;5.75;;;1.73;;
43098;SDS011;28715;51.988;6.020;2022-09-01T07:23:46;3.90;;;1.70;;
43098;SDS011;28715;51.988;6.020;2022-09-01T07:26:11;3.83;;;1.80;;
43098;SDS011;28715;51.988;6.020;2022-09-01T07:28:42;4.00;;;1.43;;
43098;SDS011;28715;51.988;6.020;2022-09-01T07:31:18;3.42;;;1.30;;
43098;SDS011;28715;51.988;6.020;2022-09-01T07:33:45;4.10;;;1.43;;
43098;SDS011;28715;51.988;6.020;2022-09-01T07:36:15;4.67;;;1.30;;
43098;SDS011;28715;51.988;6.020;2022-09-01T07:38:41;3.07;;;1.27;;
43098;SDS011;28715;51.988;6.020;2022-09-01T07:41:07;3.53;;;1.30;;
43098;SDS011;28715;51.988;6.020;2022-09-01T07:43:35;3.30;;;1.40;;
43098;SDS011;28715;51.988;6.020;2022-09-01T07:46:02;3.27;;;1.10;;
43098;SDS011;28715;51.988;6.020;2022-09-01T07:48:29;5.50;;;1.30;;
43098;SDS011;28715;51.988;6.020;2022-09-01T07:50:54;4.00;;;1.40;;
43098;SDS011;28715;51.988;6.020;2022-09-01T07:53:25;4.13;;;1.40;;
43098;SDS011;28715;51.988;6.020;2022-09-01T07:55:55;7.00;;;2.10;;
43098;SDS011;28715;51.988;6.020;2022-09-01T07:58:25;6.33;;;1.40;;
43098;SDS011;28715;51.988;6.020;2022-09-01T08:00:52;4.07;;;1.20;;
43098;SDS011;28715;51.988;6.020;2022-09-01T08:03:19;4.07;;;1.50;;
43098;SDS011;28715;51.988;6.020;2022-09-01T08:05:47;5.45;;;2.53;;
43098;SDS011;28715;51.988;6.020;2022-09-01T08:08:15;7.85;;;3.58;;
43098;SDS011;28715;51.988;6.020;2022-09-01T08:10:40;10.00;;;5.83;;
43098;SDS011;28715;51.988;6.020;2022-09-01T08:13:08;4.83;;;2.47;;
43098;SDS011;28715;51.988;6.020;2022-09-01T08:15:34;3.33;;;1.10;;
43098;SDS011;28715;51.988;6.020;2022-09-01T08:18:01;5.60;;;1.10;;
43098;SDS011;28715;51.988;6.020;2022-09-01T08:20:27;3.63;;;1.17;;
43098;SDS011;28715;51.988;6.020;2022-09-01T08:22:54;4.63;;;1.00;;
43098;SDS011;28715;51.988;6.020;2022-09-01T08:25:20;4.43;;;1.10;;
43098;SDS011;28715;51.988;6.020;2022-09-01T08:27:45;3.47;;;0.80;;
43098;SDS011;28715;51.988;6.020;2022-09-01T08:30:11;4.20;;;0.80;;
43098;SDS011;28715;51.988;6.020;2022-09-01T08:32:37;3.70;;;1.10;;
43098;SDS011;28715;51.988;6.020;2022-09-01T08:35:06;3.22;;;0.82;;
43098;SDS011;28715;51.988;6.020;2022-09-01T08:37:36;3.40;;;0.80;;
43098;SDS011;28715;51.988;6.020;2022-09-01T08:40:03;3.27;;;1.00;;
43098;SDS011;28715;51.988;6.020;2022-09-01T08:43:17;4.05;;;0.82;;
43098;SDS011;28715;51.988;6.020;2022-09-01T08:45:44;7.47;;;1.00;;
43098;SDS011;28715;51.988;6.020;2022-09-01T08:48:24;4.57;;;0.77;;
43098;SDS011;28715;51.988;6.020;2022-09-01T08:50:58;3.45;;;0.70;;
43098;SDS011;28715;51.988;6.020;2022-09-01T08:53:40;2.08;;;0.70;;
43098;SDS011;28715;51.988;6.020;2022-09-01T08:56:09;5.50;;;0.73;;
43098;SDS011;28715;51.988;6.020;2022-09-01T08:58:37;1.60;;;0.67;;
43098;SDS011;28715;51.988;6.020;2022-09-01T09:01:06;2.17;;;0.50;;
43098;SDS011;28715;51.988;6.020;2022-09-01T09:06:45;3.77;;;0.70;;
43098;SDS011;28715;51.988;6.020;2022-09-01T09:09:40;1.53;;;0.60;;
43098;SDS011;28715;51.988;6.020;2022-09-01T09:12:24;2.00;;;0.70;;
43098;SDS011;28715;51.988;6.020;2022-09-01T09:15:12;3.13;;;0.70;;
43098;SDS011;28715;51.988;6.020;2022-09-01T09:17:40;1.35;;;0.60;;
43098;SDS011;28715;51.988;6.020;2022-09-01T09:20:14;3.70;;;0.73;;
43098;SDS011;28715;51.988;6.020;2022-09-01T09:22:40;2.07;;;0.57;;
43098;SDS011;28715;51.988;6.020;2022-09-01T09:25:08;3.43;;;0.70;;
43098;SDS011;28715;51.988;6.020;2022-09-01T09:27:40;1.30;;;0.50;;
43098;SDS011;28715;51.988;6.020;2022-09-01T09:30:14;3.50;;;0.55;;
43098;SDS011;28715;51.988;6.020;2022-09-01T09:32:55;1.60;;;0.80;;
43098;SDS011;28715;51.988;6.020;2022-09-01T09:35:34;5.00;;;0.67;;
43098;SDS011;28715;51.988;6.020;2022-09-01T09:40:36;2.70;;;0.57;;
43098;SDS011;28715;51.988;6.020;2022-09-01T09:43:03;2.87;;;0.50;;
43098;SDS011;28715;51.988;6.020;2022-09-01T09:45:31;2.28;;;0.52;;
43098;SDS011;28715;51.988;6.020;2022-09-01T09:48:07;2.30;;;0.50;;
43098;SDS011;28715;51.988;6.020;2022-09-01T09:50:50;2.03;;;0.40;;
43098;SDS011;28715;51.988;6.020;2022-09-01T09:53:28;3.53;;;0.57;;
43098;SDS011;28715;51.988;6.020;2022-09-01T09:58:43;1.03;;;0.40;;
43098;SDS011;28715;51.988;6.020;2022-09-01T10:01:27;2.63;;;0.77;;
43098;SDS011;28715;51.988;6.020;2022-09-01T10:03:55;2.70;;;0.70;;
43098;SDS011;28715;51.988;6.020;2022-09-01T10:09:04;1.83;;;0.40;;
43098;SDS011;28715;51.988;6.020;2022-09-01T10:11:40;1.07;;;0.50;;
43098;SDS011;28715;51.988;6.020;2022-09-01T10:14:41;2.05;;;0.40;;
43098;SDS011;28715;51.988;6.020;2022-09-01T10:17:16;2.17;;;0.52;;
43098;SDS011;28715;51.988;6.020;2022-09-01T10:19:57;1.57;;;0.60;;
43098;SDS011;28715;51.988;6.020;2022-09-01T10:22:29;1.10;;;0.50;;
43098;SDS011;28715;51.988;6.020;2022-09-01T10:24:56;2.17;;;0.50;;
43098;SDS011;28715;51.988;6.020;2022-09-01T10:27:24;2.05;;;0.52;;
43098;SDS011;28715;51.988;6.020;2022-09-01T10:29:55;1.98;;;0.50;;
43098;SDS011;28715;51.988;6.020;2022-09-01T10:32:28;1.83;;;0.57;;
43098;SDS011;28715;51.988;6.020;2022-09-01T10:34:59;1.20;;;0.40;;
43098;SDS011;28715;51.988;6.020;2022-09-01T10:37:27;2.03;;;0.50;;
43098;SDS011;28715;51.988;6.020;2022-09-01T10:40:09;2.20;;;0.50;;
43098;SDS011;28715;51.988;6.020;2022-09-01T10:42:41;1.77;;;0.50;;
43098;SDS011;28715;51.988;6.020;2022-09-01T10:50:49;1.95;;;0.45;;
43098;SDS011;28715;51.988;6.020;2022-09-01T10:56:02;2.27;;;0.60;;
43098;SDS011;28715;51.988;6.020;2022-09-01T11:01:07;2.40;;;0.43;;
43098;SDS011;28715;51.988;6.020;2022-09-01T11:03:36;2.70;;;0.40;;
43098;SDS011;28715;51.988;6.020;2022-09-01T11:06:29;1.70;;;0.50;;
43098;SDS011;28715;51.988;6.020;2022-09-01T11:09:21;1.53;;;0.40;;
43098;SDS011;28715;51.988;6.020;2022-09-01T11:11:59;2.10;;;0.53;;
43098;SDS011;28715;51.988;6.020;2022-09-01T11:14:50;3.17;;;0.45;;
43098;SDS011;28715;51.988;6.020;2022-09-01T11:17:22;2.30;;;0.60;;
43098;SDS011;28715;51.988;6.020;2022-09-01T11:19:57;2.27;;;0.70;;
43098;SDS011;28715;51.988;6.020;2022-09-01T11:22:31;1.80;;;0.50;;
43098;SDS011;28715;51.988;6.020;2022-09-01T11:31:02;2.40;;;0.67;;
43098;SDS011;28715;51.988;6.020;2022-09-01T11:35:39;1.90;;;0.50;;
43098;SDS011;28715;51.988;6.020;2022-09-01T11:40:37;1.90;;;0.80;;
43098;SDS011;28715;51.988;6.020;2022-09-01T11:43:04;1.87;;;0.60;;
43098;SDS011;28715;51.988;6.020;2022-09-01T11:45:35;1.77;;;0.60;;
43098;SDS011;28715;51.988;6.020;2022-09-01T11:48:38;1.73;;;0.40;;
43098;SDS011;28715;51.988;6.020;2022-09-01T11:51:03;2.13;;;0.50;;
43098;SDS011;28715;51.988;6.020;2022-09-01T11:53:29;3.40;;;0.67;;
43098;SDS011;28715;51.988;6.020;2022-09-01T11:55:56;1.53;;;0.60;;
43098;SDS011;28715;51.988;6.020;2022-09-01T12:03:53;2.83;;;0.70;;
43098;SDS011;28715;51.988;6.020;2022-09-01T12:06:23;4.97;;;0.90;;
43098;SDS011;28715;51.988;6.020;2022-09-01T12:08:55;2.03;;;0.77;;
43098;SDS011;28715;51.988;6.020;2022-09-01T12:11:29;2.60;;;0.70;;
43098;SDS011;28715;51.988;6.020;2022-09-01T12:16:27;1.43;;;0.53;;
43098;SDS011;28715;51.988;6.020;2022-09-01T12:18:54;3.30;;;0.60;;
43098;SDS011;28715;51.988;6.020;2022-09-01T12:21:27;3.15;;;0.70;;
43098;SDS011;28715;51.988;6.020;2022-09-01T12:24:17;4.50;;;0.90;;
43098;SDS011;28715;51.988;6.020;2022-09-01T12:26:45;2.60;;;0.80;;
43098;SDS011;28715;51.988;6.020;2022-09-01T12:29:12;2.80;;;0.80;;
43098;SDS011;28715;51.988;6.020;2022-09-01T12:31:39;2.63;;;0.60;;
43098;SDS011;28715;51.988;6.020;2022-09-01T12:37:11;2.90;;;0.60;;
43098;SDS011;28715;51.988;6.020;2022-09-01T12:39:44;3.70;;;0.70;;
43098;SDS011;28715;51.988;6.020;2022-09-01T12:42:22;1.97;;;0.60;;
43098;SDS011;28715;51.988;6.020;2022-09-01T12:49:57;1.47;;;0.50;;
43098;SDS011;28715;51.988;6.020;2022-09-01T12:52:26;1.98;;;0.70;;
43098;SDS011;28715;51.988;6.020;2022-09-01T13:02:46;2.37;;;0.60;;
43098;SDS011;28715;51.988;6.020;2022-09-01T13:08:21;3.83;;;0.70;;
43098;SDS011;28715;51.988;6.020;2022-09-01T13:10:53;1.38;;;0.52;;
43098;SDS011;28715;51.988;6.020;2022-09-01T13:13:28;3.30;;;0.70;;
43098;SDS011;28715;51.988;6.020;2022-09-01T13:15:55;3.27;;;0.70;;
43098;SDS011;28715;51.988;6.020;2022-09-01T13:18:24;2.37;;;0.67;;
43098;SDS011;28715;51.988;6.020;2022-09-01T13:20:51;2.23;;;0.63;;
43098;SDS011;28715;51.988;6.020;2022-09-01T13:23:18;3.03;;;0.70;;
43098;SDS011;28715;51.988;6.020;2022-09-01T13:25:44;1.80;;;0.50;;
43098;SDS011;28715;51.988;6.020;2022-09-01T13:28:10;1.47;;;0.60;;
43098;SDS011;28715;51.988;6.020;2022-09-01T13:30:37;3.40;;;0.60;;
43098;SDS011;28715;51.988;6.020;2022-09-01T13:33:03;4.87;;;0.70;;
43098;SDS011;28715;51.988;6.020;2022-09-01T13:35:29;2.33;;;0.60;;
43098;SDS011;28715;51.988;6.020;2022-09-01T13:37:54;1.30;;;0.50;;
43098;SDS011;28715;51.988;6.020;2022-09-01T13:40:20;2.50;;;0.60;;
43098;SDS011;28715;51.988;6.020;2022-09-01T13:42:48;2.03;;;0.60;;
43098;SDS011;28715;51.988;6.020;2022-09-01T13:45:15;1.98;;;0.80;;
43098;SDS011;28715;51.988;6.020;2022-09-01T13:47:43;2.23;;;0.60;;
43098;SDS011;28715;51.988;6.020;2022-09-01T13:50:10;3.43;;;0.70;;
43098;SDS011;28715;51.988;6.020;2022-09-01T13:52:42;1.92;;;0.70;;
43098;SDS011;28715;51.988;6.020;2022-09-01T13:55:11;2.50;;;0.80;;
43098;SDS011;28715;51.988;6.020;2022-09-01T13:57:39;1.17;;;0.70;;
43098;SDS011;28715;51.988;6.020;2022-09-01T14:00:06;3.23;;;0.80;;
43098;SDS011;28715;51.988;6.020;2022-09-01T14:02:34;1.90;;;0.80;;
43098;SDS011;28715;51.988;6.020;2022-09-01T14:05:01;1.60;;;0.60;;
43098;SDS011;28715;51.988;6.020;2022-09-01T14:07:28;1.03;;;0.60;;
43098;SDS011;28715;51.988;6.020;2022-09-01T14:09:54;5.53;;;0.87;;
43098;SDS011;28715;51.988;6.020;2022-09-01T14:12:20;2.00;;;0.60;;
43098;SDS011;28715;51.988;6.020;2022-09-01T14:14:45;2.60;;;0.70;;
43098;SDS011;28715;51.988;6.020;2022-09-01T14:17:11;1.17;;;0.60;;
43098;SDS011;28715;51.988;6.020;2022-09-01T14:19:36;4.50;;;0.60;;
43098;SDS011;28715;51.988;6.020;2022-09-01T14:22:02;2.80;;;0.53;;
43098;SDS011;28715;51.988;6.020;2022-09-01T14:24:33;1.92;;;0.55;;
43098;SDS011;28715;51.988;6.020;2022-09-01T14:27:00;2.78;;;0.60;;
43098;SDS011;28715;51.988;6.020;2022-09-01T14:29:26;2.53;;;0.80;;
43098;SDS011;28715;51.988;6.020;2022-09-01T14:31:51;2.23;;;0.60;;
43098;SDS011;28715;51.988;6.020;2022-09-01T14:34:17;3.77;;;0.80;;
43098;SDS011;28715;51.988;6.020;2022-09-01T14:36:43;3.00;;;0.70;;
43098;SDS011;28715;51.988;6.020;2022-09-01T14:39:09;1.87;;;0.70;;
43098;SDS011;28715;51.988;6.020;2022-09-01T14:41:34;2.80;;;0.70;;
43098;SDS011;28715;51.988;6.020;2022-09-01T14:44:00;2.80;;;0.73;;
43098;SDS011;28715;51.988;6.020;2022-09-01T14:46:26;3.20;;;0.87;;
43098;SDS011;28715;51.988;6.020;2022-09-01T14:48:54;2.28;;;0.90;;
43098;SDS011;28715;51.988;6.020;2022-09-01T14:51:21;3.10;;;0.90;;
43098;SDS011;28715;51.988;6.020;2022-09-01T14:53:49;2.27;;;0.70;;
43098;SDS011;28715;51.988;6.020;2022-09-01T14:56:16;4.00;;;1.00;;
43098;SDS011;28715;51.988;6.020;2022-09-01T14:58:43;2.03;;;0.80;;
43098;SDS011;28715;51.988;6.020;2022-09-01T15:01:11;2.15;;;0.70;;
43098;SDS011;28715;51.988;6.020;2022-09-01T15:03:38;2.83;;;0.80;;
43098;SDS011;28715;51.988;6.020;2022-09-01T15:06:05;2.50;;;1.00;;
43098;SDS011;28715;51.988;6.020;2022-09-01T15:08:30;1.27;;;0.60;;
43098;SDS011;28715;51.988;6.020;2022-09-01T15:10:56;2.90;;;1.00;;
43098;SDS011;28715;51.988;6.020;2022-09-01T15:13:22;2.50;;;0.80;;
43098;SDS011;28715;51.988;6.020;2022-09-01T15:15:47;2.03;;;0.80;;
43098;SDS011;28715;51.988;6.020;2022-09-01T15:18:13;2.50;;;0.80;;
43098;SDS011;28715;51.988;6.020;2022-09-01T15:20:39;2.47;;;1.00;;
43098;SDS011;28715;51.988;6.020;2022-09-01T15:25:39;2.83;;;0.90;;
43098;SDS011;28715;51.988;6.020;2022-09-01T15:28:05;2.57;;;1.13;;
43098;SDS011;28715;51.988;6.020;2022-09-01T15:30:31;3.43;;;0.80;;
43098;SDS011;28715;51.988;6.020;2022-09-01T15:32:57;2.60;;;0.93;;
43098;SDS011;28715;51.988;6.020;2022-09-01T15:35:23;2.80;;;0.90;;
43098;SDS011;28715;51.988;6.020;2022-09-01T15:37:49;3.90;;;1.17;;
43098;SDS011;28715;51.988;6.020;2022-09-01T15:40:16;4.33;;;0.77;;
43098;SDS011;28715;51.988;6.020;2022-09-01T15:42:42;3.63;;;0.90;;
43098;SDS011;28715;51.988;6.020;2022-09-01T15:45:10;2.03;;;0.80;;
43098;SDS011;28715;51.988;6.020;2022-09-01T15:47:39;2.90;;;0.90;;
43098;SDS011;28715;51.988;6.020;2022-09-01T15:50:06;1.50;;;0.80;;
43098;SDS011;28715;51.988;6.020;2022-09-01T15:52:34;2.80;;;1.00;;
43098;SDS011;28715;51.988;6.020;2022-09-01T15:55:10;2.60;;;0.80;;
43098;SDS011;28715;51.988;6.020;2022-09-01T15:57:36;2.17;;;0.70;;
43098;SDS011;28715;51.988;6.020;2022-09-01T16:00:02;1.87;;;0.73;;
43098;SDS011;28715;51.988;6.020;2022-09-01T16:02:29;1.73;;;0.70;;
43098;SDS011;28715;51.988;6.020;2022-09-01T16:04:55;3.47;;;0.90;;
43098;SDS011;28715;51.988;6.020;2022-09-01T16:07:20;3.87;;;0.73;;
43098;SDS011;28715;51.988;6.020;2022-09-01T16:09:47;1.53;;;0.70;;
43098;SDS011;28715;51.988;6.020;2022-09-01T16:12:12;2.63;;;0.77;;
43098;SDS011;28715;51.988;6.020;2022-09-01T16:14:38;2.30;;;0.70;;